sensor_id;sensor_type;location;lat;lon;timestamp;temperature;humidity
74661;SHT31;63191;39.566;2.654;2022-11-15T00:00:53;20.67;80.78
74661;SHT31;63191;39.566;2.654;2022-11-15T00:03:20;20.66;80.92
74661;SHT31;63191;39.566;2.654;2022-11-15T00:05:52;20.63;81.01
74661;SHT31;63191;39.566;2.654;2022-11-15T00:08:18;20.62;81.09
74661;SHT31;63191;39.566;2.654;2022-11-15T00:10:53;20.61;81.18
74661;SHT31;63191;39.566;2.654;2022-11-15T00:13:23;20.60;81.31
74661;SHT31;63191;39.566;2.654;2022-11-15T00:15:49;20.60;81.43
74661;SHT31;63191;39.566;2.654;2022-11-15T00:18:14;20.62;81.48
74661;SHT31;63191;39.566;2.654;2022-11-15T00:20:41;20.64;81.36
74661;SHT31;63191;39.566;2.654;2022-11-15T00:23:07;20.66;81.32
74661;SHT31;63191;39.566;2.654;2022-11-15T00:25:34;20.67;81.20
74661;SHT31;63191;39.566;2.654;2022-11-15T00:28:00;20.68;81.20
74661;SHT31;63191;39.566;2.654;2022-11-15T00:30:27;20.66;81.17
74661;SHT31;63191;39.566;2.654;2022-11-15T00:32:53;20.65;81.27
74661;SHT31;63191;39.566;2.654;2022-11-15T00:35:19;20.65;81.23
74661;SHT31;63191;39.566;2.654;2022-11-15T00:37:45;20.66;81.24
74661;SHT31;63191;39.566;2.654;2022-11-15T00:40:12;20.65;81.28
74661;SHT31;63191;39.566;2.654;2022-11-15T00:42:40;20.63;81.37
74661;SHT31;63191;39.566;2.654;2022-11-15T00:45:06;20.62;81.35
74661;SHT31;63191;39.566;2.654;2022-11-15T00:47:33;20.64;81.25
74661;SHT31;63191;39.566;2.654;2022-11-15T00:49:58;20.63;81.23
74661;SHT31;63191;39.566;2.654;2022-11-15T00:52:24;20.61;81.20
74661;SHT31;63191;39.566;2.654;2022-11-15T00:54:50;20.58;81.30
74661;SHT31;63191;39.566;2.654;2022-11-15T00:57:15;20.55;81.48
74661;SHT31;63191;39.566;2.654;2022-11-15T00:59:41;20.53;81.61
74661;SHT31;63191;39.566;2.654;2022-11-15T01:02:07;20.50;81.60
74661;SHT31;63191;39.566;2.654;2022-11-15T01:04:32;20.46;81.79
74661;SHT31;63191;39.566;2.654;2022-11-15T01:06:58;20.44;81.93
74661;SHT31;63191;39.566;2.654;2022-11-15T01:09:24;20.42;82.07
74661;SHT31;63191;39.566;2.654;2022-11-15T01:11:49;20.42;82.19
74661;SHT31;63191;39.566;2.654;2022-11-15T01:14:15;20.41;82.33
74661;SHT31;63191;39.566;2.654;2022-11-15T01:16:41;20.40;82.38
74661;SHT31;63191;39.566;2.654;2022-11-15T01:19:07;20.39;82.35
74661;SHT31;63191;39.566;2.654;2022-11-15T01:21:33;20.36;82.31
74661;SHT31;63191;39.566;2.654;2022-11-15T01:23:58;20.34;82.41
74661;SHT31;63191;39.566;2.654;2022-11-15T01:26:24;20.32;82.66
74661;SHT31;63191;39.566;2.654;2022-11-15T01:28:51;20.29;82.96
74661;SHT31;63191;39.566;2.654;2022-11-15T01:31:18;20.28;83.13
74661;SHT31;63191;39.566;2.654;2022-11-15T01:33:46;20.27;83.34
74661;SHT31;63191;39.566;2.654;2022-11-15T01:36:14;20.28;83.39
74661;SHT31;63191;39.566;2.654;2022-11-15T01:38:43;20.27;83.35
74661;SHT31;63191;39.566;2.654;2022-11-15T01:41:16;20.25;83.46
74661;SHT31;63191;39.566;2.654;2022-11-15T01:43:46;20.24;83.65
74661;SHT31;63191;39.566;2.654;2022-11-15T01:49:02;20.27;84.13
74661;SHT31;63191;39.566;2.654;2022-11-15T01:51:37;20.29;84.17
74661;SHT31;63191;39.566;2.654;2022-11-15T01:54:04;20.30;84.16
74661;SHT31;63191;39.566;2.654;2022-11-15T01:56:36;20.30;84.06
74661;SHT31;63191;39.566;2.654;2022-11-15T01:59:10;20.29;83.96
74661;SHT31;63191;39.566;2.654;2022-11-15T02:01:36;20.26;83.86
74661;SHT31;63191;39.566;2.654;2022-11-15T02:04:20;20.25;83.80
74661;SHT31;63191;39.566;2.654;2022-11-15T02:06:51;20.23;83.74
74661;SHT31;63191;39.566;2.654;2022-11-15T02:09:17;20.19;83.77
74661;SHT31;63191;39.566;2.654;2022-11-15T02:11:43;20.17;83.82
74661;SHT31;63191;39.566;2.654;2022-11-15T02:14:10;20.14;83.81
74661;SHT31;63191;39.566;2.654;2022-11-15T02:16:48;20.12;83.75
74661;SHT31;63191;39.566;2.654;2022-11-15T02:22:17;20.05;83.78
74661;SHT31;63191;39.566;2.654;2022-11-15T02:40:05;19.88;84.02
74661;SHT31;63191;39.566;2.654;2022-11-15T02:42:39;19.88;84.00
74661;SHT31;63191;39.566;2.654;2022-11-15T02:45:31;19.88;84.08
74661;SHT31;63191;39.566;2.654;2022-11-15T02:48:02;19.86;84.09
74661;SHT31;63191;39.566;2.654;2022-11-15T02:50:30;19.84;84.10
74661;SHT31;63191;39.566;2.654;2022-11-15T02:52:58;19.84;84.18
74661;SHT31;63191;39.566;2.654;2022-11-15T02:55:37;19.84;84.20
74661;SHT31;63191;39.566;2.654;2022-11-15T03:01:24;19.81;84.20
74661;SHT31;63191;39.566;2.654;2022-11-15T03:10:06;19.75;84.29
74661;SHT31;63191;39.566;2.654;2022-11-15T03:12:45;19.73;84.23
74661;SHT31;63191;39.566;2.654;2022-11-15T03:15:23;19.70;84.22
74661;SHT31;63191;39.566;2.654;2022-11-15T03:17:56;19.69;84.28
74661;SHT31;63191;39.566;2.654;2022-11-15T03:20:27;19.67;84.30
74661;SHT31;63191;39.566;2.654;2022-11-15T03:22:55;19.67;84.31
74661;SHT31;63191;39.566;2.654;2022-11-15T03:25:26;19.65;84.34
74661;SHT31;63191;39.566;2.654;2022-11-15T03:27:55;19.61;84.35
74661;SHT31;63191;39.566;2.654;2022-11-15T03:30:24;19.58;84.40
74661;SHT31;63191;39.566;2.654;2022-11-15T03:32:51;19.59;84.46
74661;SHT31;63191;39.566;2.654;2022-11-15T03:35:22;19.58;84.42
74661;SHT31;63191;39.566;2.654;2022-11-15T03:40:42;19.54;84.50
74661;SHT31;63191;39.566;2.654;2022-11-15T03:47:16;19.53;84.71
74661;SHT31;63191;39.566;2.654;2022-11-15T03:50:20;19.54;84.87
74661;SHT31;63191;39.566;2.654;2022-11-15T03:52:48;19.56;84.87
74661;SHT31;63191;39.566;2.654;2022-11-15T03:55:17;19.58;84.80
74661;SHT31;63191;39.566;2.654;2022-11-15T03:57:45;19.60;84.70
74661;SHT31;63191;39.566;2.654;2022-11-15T04:00:14;19.62;84.57
74661;SHT31;63191;39.566;2.654;2022-11-15T04:02:41;19.63;84.51
74661;SHT31;63191;39.566;2.654;2022-11-15T04:05:07;19.63;84.47
74661;SHT31;63191;39.566;2.654;2022-11-15T04:07:33;19.63;84.39
74661;SHT31;63191;39.566;2.654;2022-11-15T04:09:58;19.62;84.31
74661;SHT31;63191;39.566;2.654;2022-11-15T04:12:27;19.61;84.24
74661;SHT31;63191;39.566;2.654;2022-11-15T04:14:57;19.61;84.23
74661;SHT31;63191;39.566;2.654;2022-11-15T04:17:41;19.59;84.30
74661;SHT31;63191;39.566;2.654;2022-11-15T04:23:00;19.58;84.55
74661;SHT31;63191;39.566;2.654;2022-11-15T04:25:47;19.60;84.59
74661;SHT31;63191;39.566;2.654;2022-11-15T04:28:17;19.62;84.61
74661;SHT31;63191;39.566;2.654;2022-11-15T04:30:43;19.65;84.69
74661;SHT31;63191;39.566;2.654;2022-11-15T04:33:09;19.68;84.69
74661;SHT31;63191;39.566;2.654;2022-11-15T04:35:35;19.70;84.61
74661;SHT31;63191;39.566;2.654;2022-11-15T04:38:02;19.74;84.53
74661;SHT31;63191;39.566;2.654;2022-11-15T04:40:30;19.75;84.41
74661;SHT31;63191;39.566;2.654;2022-11-15T04:42:56;19.74;84.29
74661;SHT31;63191;39.566;2.654;2022-11-15T04:45:22;19.72;84.22
74661;SHT31;63191;39.566;2.654;2022-11-15T04:47:48;19.69;84.19
74661;SHT31;63191;39.566;2.654;2022-11-15T04:50:14;19.67;84.10
74661;SHT31;63191;39.566;2.654;2022-11-15T04:52:42;19.65;84.10
74661;SHT31;63191;39.566;2.654;2022-11-15T04:55:14;19.67;84.07
74661;SHT31;63191;39.566;2.654;2022-11-15T04:57:40;19.68;84.03
74661;SHT31;63191;39.566;2.654;2022-11-15T05:00:07;19.70;83.96
74661;SHT31;63191;39.566;2.654;2022-11-15T05:02:36;19.72;83.86
74661;SHT31;63191;39.566;2.654;2022-11-15T05:05:23;19.73;83.72
74661;SHT31;63191;39.566;2.654;2022-11-15T05:07:50;19.76;83.62
74661;SHT31;63191;39.566;2.654;2022-11-15T05:10:16;19.78;83.45
74661;SHT31;63191;39.566;2.654;2022-11-15T05:12:42;19.77;83.29
74661;SHT31;63191;39.566;2.654;2022-11-15T05:15:07;19.76;83.18
74661;SHT31;63191;39.566;2.654;2022-11-15T05:17:34;19.77;83.03
74661;SHT31;63191;39.566;2.654;2022-11-15T05:20:00;19.77;82.88
74661;SHT31;63191;39.566;2.654;2022-11-15T05:22:25;19.77;82.80
74661;SHT31;63191;39.566;2.654;2022-11-15T05:24:52;19.76;82.74
74661;SHT31;63191;39.566;2.654;2022-11-15T05:27:17;19.75;82.70
74661;SHT31;63191;39.566;2.654;2022-11-15T05:29:43;19.76;82.70
74661;SHT31;63191;39.566;2.654;2022-11-15T05:32:09;19.76;82.64
74661;SHT31;63191;39.566;2.654;2022-11-15T05:34:35;19.77;82.59
74661;SHT31;63191;39.566;2.654;2022-11-15T05:37:01;19.77;82.60
74661;SHT31;63191;39.566;2.654;2022-11-15T05:39:28;19.77;82.52
74661;SHT31;63191;39.566;2.654;2022-11-15T05:41:54;19.75;82.50
74661;SHT31;63191;39.566;2.654;2022-11-15T05:44:31;19.76;82.52
74661;SHT31;63191;39.566;2.654;2022-11-15T05:46:58;19.76;82.49
74661;SHT31;63191;39.566;2.654;2022-11-15T05:49:24;19.77;82.42
74661;SHT31;63191;39.566;2.654;2022-11-15T05:51:55;19.75;82.40
74661;SHT31;63191;39.566;2.654;2022-11-15T05:54:22;19.74;82.41
74661;SHT31;63191;39.566;2.654;2022-11-15T05:56:50;19.72;82.40
74661;SHT31;63191;39.566;2.654;2022-11-15T05:59:16;19.71;82.39
74661;SHT31;63191;39.566;2.654;2022-11-15T06:01:42;19.72;82.25
74661;SHT31;63191;39.566;2.654;2022-11-15T06:04:08;19.73;82.11
74661;SHT31;63191;39.566;2.654;2022-11-15T06:06:34;19.74;82.00
74661;SHT31;63191;39.566;2.654;2022-11-15T06:08:59;19.76;81.82
74661;SHT31;63191;39.566;2.654;2022-11-15T06:11:25;19.78;81.71
74661;SHT31;63191;39.566;2.654;2022-11-15T06:13:52;19.80;81.76
74661;SHT31;63191;39.566;2.654;2022-11-15T06:16:18;19.83;81.80
74661;SHT31;63191;39.566;2.654;2022-11-15T06:18:43;19.83;81.70
74661;SHT31;63191;39.566;2.654;2022-11-15T06:21:09;19.83;81.60
74661;SHT31;63191;39.566;2.654;2022-11-15T06:23:35;19.82;81.62
74661;SHT31;63191;39.566;2.654;2022-11-15T06:26:01;19.82;81.56
74661;SHT31;63191;39.566;2.654;2022-11-15T06:28:28;19.83;81.50
74661;SHT31;63191;39.566;2.654;2022-11-15T06:31:04;19.83;81.48
74661;SHT31;63191;39.566;2.654;2022-11-15T06:33:32;19.84;81.50
74661;SHT31;63191;39.566;2.654;2022-11-15T06:36:02;19.83;81.49
74661;SHT31;63191;39.566;2.654;2022-11-15T06:38:34;19.82;81.46
74661;SHT31;63191;39.566;2.654;2022-11-15T06:41:01;19.83;81.58
74661;SHT31;63191;39.566;2.654;2022-11-15T06:43:35;19.85;81.67
74661;SHT31;63191;39.566;2.654;2022-11-15T06:46:02;19.86;81.76
74661;SHT31;63191;39.566;2.654;2022-11-15T06:48:30;19.87;81.70
74661;SHT31;63191;39.566;2.654;2022-11-15T06:50:59;19.90;81.65
74661;SHT31;63191;39.566;2.654;2022-11-15T06:53:27;19.95;81.47
74661;SHT31;63191;39.566;2.654;2022-11-15T06:55:58;19.98;81.27
74661;SHT31;63191;39.566;2.654;2022-11-15T06:58:29;20.02;81.03
74661;SHT31;63191;39.566;2.654;2022-11-15T07:01:02;20.12;80.83
74661;SHT31;63191;39.566;2.654;2022-11-15T07:03:34;20.26;80.60
74661;SHT31;63191;39.566;2.654;2022-11-15T07:06:02;20.38;80.24
74661;SHT31;63191;39.566;2.654;2022-11-15T07:08:28;20.46;79.99
74661;SHT31;63191;39.566;2.654;2022-11-15T07:10:55;20.56;79.67
74661;SHT31;63191;39.566;2.654;2022-11-15T07:13:25;20.72;79.11
74661;SHT31;63191;39.566;2.654;2022-11-15T07:15:52;20.81;78.65
74661;SHT31;63191;39.566;2.654;2022-11-15T07:18:18;20.91;78.37
74661;SHT31;63191;39.566;2.654;2022-11-15T07:20:44;21.28;77.73
74661;SHT31;63191;39.566;2.654;2022-11-15T07:23:10;21.81;77.15
74661;SHT31;63191;39.566;2.654;2022-11-15T07:25:36;22.36;76.34
74661;SHT31;63191;39.566;2.654;2022-11-15T07:28:02;22.74;75.39
74661;SHT31;63191;39.566;2.654;2022-11-15T07:30:28;23.08;74.27
74661;SHT31;63191;39.566;2.654;2022-11-15T07:32:58;23.53;72.51
74661;SHT31;63191;39.566;2.654;2022-11-15T07:35:25;24.08;71.48
74661;SHT31;63191;39.566;2.654;2022-11-15T07:37:54;24.63;69.85
74661;SHT31;63191;39.566;2.654;2022-11-15T07:40:21;25.15;68.71
74661;SHT31;63191;39.566;2.654;2022-11-15T07:42:48;25.73;67.62
74661;SHT31;63191;39.566;2.654;2022-11-15T07:45:21;26.38;65.57
74661;SHT31;63191;39.566;2.654;2022-11-15T07:47:50;26.92;63.08
74661;SHT31;63191;39.566;2.654;2022-11-15T07:50:18;27.36;60.68
74661;SHT31;63191;39.566;2.654;2022-11-15T07:52:44;27.76;59.22
74661;SHT31;63191;39.566;2.654;2022-11-15T07:55:10;28.17;57.43
74661;SHT31;63191;39.566;2.654;2022-11-15T07:57:37;28.49;55.15
74661;SHT31;63191;39.566;2.654;2022-11-15T08:00:04;28.75;54.21
74661;SHT31;63191;39.566;2.654;2022-11-15T08:02:31;28.89;52.82
74661;SHT31;63191;39.566;2.654;2022-11-15T08:04:59;29.07;52.42
74661;SHT31;63191;39.566;2.654;2022-11-15T08:07:27;29.29;51.22
74661;SHT31;63191;39.566;2.654;2022-11-15T08:09:55;29.41;50.91
74661;SHT31;63191;39.566;2.654;2022-11-15T08:12:21;29.59;50.84
74661;SHT31;63191;39.566;2.654;2022-11-15T08:14:47;29.89;49.88
74661;SHT31;63191;39.566;2.654;2022-11-15T08:17:13;30.11;49.59
74661;SHT31;63191;39.566;2.654;2022-11-15T08:19:39;30.20;49.18
74661;SHT31;63191;39.566;2.654;2022-11-15T08:22:05;30.15;47.99
74661;SHT31;63191;39.566;2.654;2022-11-15T08:24:30;29.82;47.75
74661;SHT31;63191;39.566;2.654;2022-11-15T08:26:56;29.27;48.34
74661;SHT31;63191;39.566;2.654;2022-11-15T08:29:22;28.99;48.98
74661;SHT31;63191;39.566;2.654;2022-11-15T08:31:48;28.92;49.44
74661;SHT31;63191;39.566;2.654;2022-11-15T08:34:14;28.60;50.61
74661;SHT31;63191;39.566;2.654;2022-11-15T08:36:40;28.23;51.49
74661;SHT31;63191;39.566;2.654;2022-11-15T08:39:06;27.88;51.47
74661;SHT31;63191;39.566;2.654;2022-11-15T08:41:37;27.61;51.99
74661;SHT31;63191;39.566;2.654;2022-11-15T08:44:03;27.87;52.49
74661;SHT31;63191;39.566;2.654;2022-11-15T08:46:29;28.79;51.63
74661;SHT31;63191;39.566;2.654;2022-11-15T08:48:55;29.73;48.68
74661;SHT31;63191;39.566;2.654;2022-11-15T08:51:22;30.40;46.94
74661;SHT31;63191;39.566;2.654;2022-11-15T08:53:48;31.02;45.85
74661;SHT31;63191;39.566;2.654;2022-11-15T08:56:14;31.09;45.17
74661;SHT31;63191;39.566;2.654;2022-11-15T08:58:40;31.55;45.40
74661;SHT31;63191;39.566;2.654;2022-11-15T09:01:14;32.13;45.71
74661;SHT31;63191;39.566;2.654;2022-11-15T09:03:42;32.19;45.76
74661;SHT31;63191;39.566;2.654;2022-11-15T09:06:08;32.28;45.24
74661;SHT31;63191;39.566;2.654;2022-11-15T09:08:34;31.59;45.65
74661;SHT31;63191;39.566;2.654;2022-11-15T09:11:02;30.49;46.96
74661;SHT31;63191;39.566;2.654;2022-11-15T09:13:29;29.69;48.21
74661;SHT31;63191;39.566;2.654;2022-11-15T09:15:59;28.84;50.79
74661;SHT31;63191;39.566;2.654;2022-11-15T09:18:26;28.19;53.09
74661;SHT31;63191;39.566;2.654;2022-11-15T09:20:56;27.67;54.29
74661;SHT31;63191;39.566;2.654;2022-11-15T09:23:23;27.37;54.19
74661;SHT31;63191;39.566;2.654;2022-11-15T09:25:49;27.58;52.30
74661;SHT31;63191;39.566;2.654;2022-11-15T09:28:16;28.08;52.40
74661;SHT31;63191;39.566;2.654;2022-11-15T09:30:41;28.24;52.45
74661;SHT31;63191;39.566;2.654;2022-11-15T09:33:10;27.82;53.12
74661;SHT31;63191;39.566;2.654;2022-11-15T09:35:37;27.26;53.40
74661;SHT31;63191;39.566;2.654;2022-11-15T09:38:04;26.91;53.08
74661;SHT31;63191;39.566;2.654;2022-11-15T09:40:31;26.73;53.64
74661;SHT31;63191;39.566;2.654;2022-11-15T09:45:37;27.07;52.48
74661;SHT31;63191;39.566;2.654;2022-11-15T09:51:29;27.11;51.68
74661;SHT31;63191;39.566;2.654;2022-11-15T09:54:01;27.01;50.62
74661;SHT31;63191;39.566;2.654;2022-11-15T09:57:12;27.44;49.93
74661;SHT31;63191;39.566;2.654;2022-11-15T09:59:46;28.05;49.03
74661;SHT31;63191;39.566;2.654;2022-11-15T10:05:07;27.95;48.37
74661;SHT31;63191;39.566;2.654;2022-11-15T10:07:42;27.99;48.24
74661;SHT31;63191;39.566;2.654;2022-11-15T10:10:38;27.73;48.34
74661;SHT31;63191;39.566;2.654;2022-11-15T10:13:12;27.32;48.33
74661;SHT31;63191;39.566;2.654;2022-11-15T10:15:50;27.04;49.04
74661;SHT31;63191;39.566;2.654;2022-11-15T10:18:21;26.95;49.64
74661;SHT31;63191;39.566;2.654;2022-11-15T10:20:59;26.91;49.60
74661;SHT31;63191;39.566;2.654;2022-11-15T10:23:48;26.81;49.69
74661;SHT31;63191;39.566;2.654;2022-11-15T10:26:16;26.71;49.11
74661;SHT31;63191;39.566;2.654;2022-11-15T10:28:42;26.60;49.68
74661;SHT31;63191;39.566;2.654;2022-11-15T10:34:16;26.49;50.62
74661;SHT31;63191;39.566;2.654;2022-11-15T10:36:58;26.20;51.56
74661;SHT31;63191;39.566;2.654;2022-11-15T10:39:27;25.99;52.67
74661;SHT31;63191;39.566;2.654;2022-11-15T10:41:53;25.92;52.97
74661;SHT31;63191;39.566;2.654;2022-11-15T10:44:21;25.96;53.13
74661;SHT31;63191;39.566;2.654;2022-11-15T10:49:24;25.98;53.61
74661;SHT31;63191;39.566;2.654;2022-11-15T10:51:55;25.91;53.73
74661;SHT31;63191;39.566;2.654;2022-11-15T10:54:30;26.05;55.49
74661;SHT31;63191;39.566;2.654;2022-11-15T10:57:05;26.67;57.17
74661;SHT31;63191;39.566;2.654;2022-11-15T10:59:47;27.54;54.54
74661;SHT31;63191;39.566;2.654;2022-11-15T11:04:59;28.17;53.67
74661;SHT31;63191;39.566;2.654;2022-11-15T11:07:30;28.49;53.42
74661;SHT31;63191;39.566;2.654;2022-11-15T11:10:01;28.81;53.43
74661;SHT31;63191;39.566;2.654;2022-11-15T11:12:42;30.19;49.70
74661;SHT31;63191;39.566;2.654;2022-11-15T11:15:12;30.40;48.37
74661;SHT31;63191;39.566;2.654;2022-11-15T11:20:48;31.65;45.02
74661;SHT31;63191;39.566;2.654;2022-11-15T11:23:46;31.78;45.45
74661;SHT31;63191;39.566;2.654;2022-11-15T11:32:31;31.24;44.29
74661;SHT31;63191;39.566;2.654;2022-11-15T11:35:27;31.19;44.67
74661;SHT31;63191;39.566;2.654;2022-11-15T11:38:12;31.88;43.96
74661;SHT31;63191;39.566;2.654;2022-11-15T11:46:52;31.34;43.11
74661;SHT31;63191;39.566;2.654;2022-11-15T11:49:24;31.30;43.40
74661;SHT31;63191;39.566;2.654;2022-11-15T11:55:15;30.44;45.28
74661;SHT31;63191;39.566;2.654;2022-11-15T12:00:28;29.50;45.82
74661;SHT31;63191;39.566;2.654;2022-11-15T12:03:04;29.98;44.95
74661;SHT31;63191;39.566;2.654;2022-11-15T12:05:56;30.89;43.48
74661;SHT31;63191;39.566;2.654;2022-11-15T12:08:52;31.59;42.30
74661;SHT31;63191;39.566;2.654;2022-11-15T12:14:24;32.13;42.74
74661;SHT31;63191;39.566;2.654;2022-11-15T12:16:58;32.64;42.02
74661;SHT31;63191;39.566;2.654;2022-11-15T12:19:24;33.37;40.71
74661;SHT31;63191;39.566;2.654;2022-11-15T12:30:04;35.21;36.21
74661;SHT31;63191;39.566;2.654;2022-11-15T12:32:38;33.60;38.48
74661;SHT31;63191;39.566;2.654;2022-11-15T12:35:25;32.06;40.92
74661;SHT31;63191;39.566;2.654;2022-11-15T12:37:54;30.73;43.46
74661;SHT31;63191;39.566;2.654;2022-11-15T12:40:25;29.61;45.20
74661;SHT31;63191;39.566;2.654;2022-11-15T12:43:02;28.66;46.45
74661;SHT31;63191;39.566;2.654;2022-11-15T12:46:02;27.69;48.55
74661;SHT31;63191;39.566;2.654;2022-11-15T12:51:05;26.64;52.11
74661;SHT31;63191;39.566;2.654;2022-11-15T12:53:31;26.29;53.63
74661;SHT31;63191;39.566;2.654;2022-11-15T12:58:51;25.89;56.35
74661;SHT31;63191;39.566;2.654;2022-11-15T13:06:49;25.73;57.03
74661;SHT31;63191;39.566;2.654;2022-11-15T13:17:53;27.55;54.38
74661;SHT31;63191;39.566;2.654;2022-11-15T13:20:22;29.18;50.64
74661;SHT31;63191;39.566;2.654;2022-11-15T13:23:13;29.78;48.25
74661;SHT31;63191;39.566;2.654;2022-11-15T13:31:19;28.22;50.11
74661;SHT31;63191;39.566;2.654;2022-11-15T13:33:59;27.48;51.87
74661;SHT31;63191;39.566;2.654;2022-11-15T13:36:39;26.86;52.58
74661;SHT31;63191;39.566;2.654;2022-11-15T13:39:06;26.42;53.93
74661;SHT31;63191;39.566;2.654;2022-11-15T13:41:59;25.93;54.91
74661;SHT31;63191;39.566;2.654;2022-11-15T13:44:32;25.58;57.14
74661;SHT31;63191;39.566;2.654;2022-11-15T13:47:02;25.35;56.78
74661;SHT31;63191;39.566;2.654;2022-11-15T13:49:32;25.13;53.69
74661;SHT31;63191;39.566;2.654;2022-11-15T13:51:59;24.95;53.12
74661;SHT31;63191;39.566;2.654;2022-11-15T13:54:40;24.85;53.59
74661;SHT31;63191;39.566;2.654;2022-11-15T13:57:30;24.76;53.79
74661;SHT31;63191;39.566;2.654;2022-11-15T14:03:16;24.42;54.36
74661;SHT31;63191;39.566;2.654;2022-11-15T14:08:40;24.20;54.66
74661;SHT31;63191;39.566;2.654;2022-11-15T14:13:39;23.92;55.65
74661;SHT31;63191;39.566;2.654;2022-11-15T14:16:19;23.81;55.73
74661;SHT31;63191;39.566;2.654;2022-11-15T14:18:47;23.72;55.55
74661;SHT31;63191;39.566;2.654;2022-11-15T14:21:16;23.64;55.65
74661;SHT31;63191;39.566;2.654;2022-11-15T14:23:44;23.56;56.12
74661;SHT31;63191;39.566;2.654;2022-11-15T14:26:27;23.50;56.43
74661;SHT31;63191;39.566;2.654;2022-11-15T14:32:14;23.44;59.45
74661;SHT31;63191;39.566;2.654;2022-11-15T14:34:54;23.44;61.74
74661;SHT31;63191;39.566;2.654;2022-11-15T14:37:26;23.44;63.54
74661;SHT31;63191;39.566;2.654;2022-11-15T14:39:56;23.47;64.30
74661;SHT31;63191;39.566;2.654;2022-11-15T14:42:22;23.54;64.63
74661;SHT31;63191;39.566;2.654;2022-11-15T14:44:49;23.58;65.30
74661;SHT31;63191;39.566;2.654;2022-11-15T14:47:15;23.59;65.66
74661;SHT31;63191;39.566;2.654;2022-11-15T14:49:41;23.57;65.83
74661;SHT31;63191;39.566;2.654;2022-11-15T14:54:58;23.55;66.57
74661;SHT31;63191;39.566;2.654;2022-11-15T14:57:26;23.54;66.67
74661;SHT31;63191;39.566;2.654;2022-11-15T14:59:52;23.49;66.55
74661;SHT31;63191;39.566;2.654;2022-11-15T15:02:19;23.42;67.02
74661;SHT31;63191;39.566;2.654;2022-11-15T15:04:48;23.35;67.67
74661;SHT31;63191;39.566;2.654;2022-11-15T15:07:15;23.31;67.89
74661;SHT31;63191;39.566;2.654;2022-11-15T15:09:43;23.31;67.96
74661;SHT31;63191;39.566;2.654;2022-11-15T15:12:20;23.36;68.22
74661;SHT31;63191;39.566;2.654;2022-11-15T15:14:48;23.30;68.41
74661;SHT31;63191;39.566;2.654;2022-11-15T15:17:16;23.23;68.61
74661;SHT31;63191;39.566;2.654;2022-11-15T15:19:43;23.16;68.93
74661;SHT31;63191;39.566;2.654;2022-11-15T15:22:11;23.10;69.77
74661;SHT31;63191;39.566;2.654;2022-11-15T15:24:40;23.03;70.49
74661;SHT31;63191;39.566;2.654;2022-11-15T15:27:08;22.93;70.37
74661;SHT31;63191;39.566;2.654;2022-11-15T15:29:34;22.82;70.49
74661;SHT31;63191;39.566;2.654;2022-11-15T15:32:00;22.66;72.04
74661;SHT31;63191;39.566;2.654;2022-11-15T15:34:26;22.30;73.37
74661;SHT31;63191;39.566;2.654;2022-11-15T15:39:50;21.55;75.33
74661;SHT31;63191;39.566;2.654;2022-11-15T15:42:21;21.40;76.99
74661;SHT31;63191;39.566;2.654;2022-11-15T15:44:48;21.34;78.29
74661;SHT31;63191;39.566;2.654;2022-11-15T15:47:16;21.33;78.24
74661;SHT31;63191;39.566;2.654;2022-11-15T15:49:45;21.30;78.21
74661;SHT31;63191;39.566;2.654;2022-11-15T15:52:12;21.29;78.42
74661;SHT31;63191;39.566;2.654;2022-11-15T15:54:38;21.30;78.53
74661;SHT31;63191;39.566;2.654;2022-11-15T15:57:04;21.28;78.71
74661;SHT31;63191;39.566;2.654;2022-11-15T15:59:31;21.30;78.66
74661;SHT31;63191;39.566;2.654;2022-11-15T16:01:57;21.34;78.58
74661;SHT31;63191;39.566;2.654;2022-11-15T16:04:24;21.38;78.17
74661;SHT31;63191;39.566;2.654;2022-11-15T16:06:51;21.38;78.18
74661;SHT31;63191;39.566;2.654;2022-11-15T16:09:17;21.35;78.35
74661;SHT31;63191;39.566;2.654;2022-11-15T16:12:04;21.32;78.57
74661;SHT31;63191;39.566;2.654;2022-11-15T16:14:31;21.28;78.62
74661;SHT31;63191;39.566;2.654;2022-11-15T16:16:57;21.24;78.95
74661;SHT31;63191;39.566;2.654;2022-11-15T16:19:23;21.23;79.06
74661;SHT31;63191;39.566;2.654;2022-11-15T16:21:49;21.20;79.29
74661;SHT31;63191;39.566;2.654;2022-11-15T16:24:17;21.16;79.43
74661;SHT31;63191;39.566;2.654;2022-11-15T16:26:44;21.11;79.46
74661;SHT31;63191;39.566;2.654;2022-11-15T16:29:12;21.08;79.36
74661;SHT31;63191;39.566;2.654;2022-11-15T16:31:37;21.03;79.53
74661;SHT31;63191;39.566;2.654;2022-11-15T16:34:03;20.98;79.56
74661;SHT31;63191;39.566;2.654;2022-11-15T16:36:30;20.95;79.53
74661;SHT31;63191;39.566;2.654;2022-11-15T16:38:58;20.93;79.55
74661;SHT31;63191;39.566;2.654;2022-11-15T16:41:29;20.90;79.50
74661;SHT31;63191;39.566;2.654;2022-11-15T16:43:55;20.88;79.61
74661;SHT31;63191;39.566;2.654;2022-11-15T16:46:22;20.86;79.49
74661;SHT31;63191;39.566;2.654;2022-11-15T16:48:50;20.84;79.30
74661;SHT31;63191;39.566;2.654;2022-11-15T16:51:18;20.83;79.40
74661;SHT31;63191;39.566;2.654;2022-11-15T16:53:45;20.82;79.21
74661;SHT31;63191;39.566;2.654;2022-11-15T16:56:21;20.79;78.98
74661;SHT31;63191;39.566;2.654;2022-11-15T16:58:55;20.76;78.84
74661;SHT31;63191;39.566;2.654;2022-11-15T17:04:10;20.75;78.94
74661;SHT31;63191;39.566;2.654;2022-11-15T17:06:41;20.73;78.91
74661;SHT31;63191;39.566;2.654;2022-11-15T17:09:10;20.71;78.84
74661;SHT31;63191;39.566;2.654;2022-11-15T17:11:47;20.70;78.80
74661;SHT31;63191;39.566;2.654;2022-11-15T17:14:13;20.67;78.69
74661;SHT31;63191;39.566;2.654;2022-11-15T17:16:40;20.64;78.53
74661;SHT31;63191;39.566;2.654;2022-11-15T17:19:14;20.58;78.29
74661;SHT31;63191;39.566;2.654;2022-11-15T17:21:43;20.52;78.20
74661;SHT31;63191;39.566;2.654;2022-11-15T17:24:10;20.44;78.20
74661;SHT31;63191;39.566;2.654;2022-11-15T17:26:36;20.37;78.10
74661;SHT31;63191;39.566;2.654;2022-11-15T17:29:03;20.31;78.11
74661;SHT31;63191;39.566;2.654;2022-11-15T17:31:32;20.26;78.00
74661;SHT31;63191;39.566;2.654;2022-11-15T17:34:01;20.25;77.90
74661;SHT31;63191;39.566;2.654;2022-11-15T17:36:28;20.23;77.88
74661;SHT31;63191;39.566;2.654;2022-11-15T17:38:54;20.21;77.73
74661;SHT31;63191;39.566;2.654;2022-11-15T17:41:20;20.20;77.70
74661;SHT31;63191;39.566;2.654;2022-11-15T17:43:46;20.19;77.66
74661;SHT31;63191;39.566;2.654;2022-11-15T17:46:16;20.19;77.61
74661;SHT31;63191;39.566;2.654;2022-11-15T17:48:45;20.19;77.57
74661;SHT31;63191;39.566;2.654;2022-11-15T17:51:13;20.21;77.60
74661;SHT31;63191;39.566;2.654;2022-11-15T17:53:42;20.23;77.68
74661;SHT31;63191;39.566;2.654;2022-11-15T17:56:14;20.25;77.82
74661;SHT31;63191;39.566;2.654;2022-11-15T17:58:46;20.29;78.11
74661;SHT31;63191;39.566;2.654;2022-11-15T18:03:50;20.39;78.12